Wind From: 13-12-2017 10:08 Until: 14-12-2017 06:00 warning for: Wind Level: Yellow info button

Although rather usual in this region, locally or potentially dangerous phenomena are expected. (such as local winds, summer thunderstorms, rising streams or high waves) Be aware and pay attention to the latest weather updates, especially if you carry out activities exposed to weather or close to a stream or shoreline. 


Meteo18 Weather Cam more information Meteo18 Weather Cam


Thunder radar more information blitzortung!


Rain radar more information rain snow radar


Visit our other weather sites:

Template documentation
and downloads

And another site



Weather Underground History page Text

Daily Summary for October 18, 2016 Units:  Metric    English   Both
« Previous Day
Next Day »
Daily Weekly Monthly Yearly Custom
  High: Low: Average:
Temperature: 15.1 °C 4.5 °C 10 °C
Dew Point: 12.0 °C 4.1 °C 8.3 °C
Humidity: 98 % 67 % 90 %
Wind Speed: 17.7 km/h 0.0 km/h 3.4 km/h
Wind Gust: 20.9 km/h - -
Wind:- - SW
Pressure: 1025.6 hPa 1023.2 hPa -
Precipitation: 0.5 mm    
Historical Graphs
 
 
Tabular Data for October 18, 2016
Time Temperature Dew Point Pressure Wind Wind Speed Wind Gust Humidity Rainfall Rate (Hourly)
00:02 10.4 °C 9.8 °C 1023.9 hPa NNE 1.6 km/h 1.6 km/h 96 % 0.0 mm
00:07 10.4 °C 9.8 °C 1023.9 hPa Calm   3.2 km/h 96 % 0.0 mm
00:12 10.6 °C 10.1 °C 1023.9 hPa Calm   3.2 km/h 97 % 0.0 mm
00:17 10.4 °C 9.8 °C 1023.9 hPa NNE 1.6 km/h 3.2 km/h 96 % 0.0 mm
00:22 10.1 °C 9.3 °C 1023.9 hPa NNE 3.2 km/h 3.2 km/h 95 % 0.0 mm
00:27 10.0 °C 9.4 °C 1023.9 hPa NNW 3.2 km/h 3.2 km/h 96 % 0.0 mm
00:32 9.9 °C 9.3 °C 1023.9 hPa NNE 1.6 km/h 4.8 km/h 96 % 0.0 mm
00:42 9.7 °C 9.1 °C 1023.9 hPa North 1.6 km/h 4.8 km/h 96 % 0.0 mm
00:52 9.7 °C 9.1 °C 1023.9 hPa Calm   4.8 km/h 96 % 0.0 mm
00:57 9.6 °C 9.0 °C 1023.9 hPa Calm   1.6 km/h 96 % 0.0 mm
01:07 9.6 °C 9.1 °C 1023.9 hPa Calm   1.6 km/h 97 % 0.0 mm
01:12 9.6 °C 9.1 °C 1023.9 hPa Calm     97 % 0.0 mm
01:17 9.4 °C 8.8 °C 1023.9 hPa Calm     96 % 0.0 mm
01:22 9.4 °C 8.9 °C 1023.9 hPa Calm     97 % 0.0 mm
01:27 9.5 °C 9.0 °C 1023.9 hPa Calm     97 % 0.0 mm
01:32 9.6 °C 9.1 °C 1024.3 hPa Calm     97 % 0.0 mm
01:37 9.4 °C 8.8 °C 1024.3 hPa Calm     96 % 0.0 mm
01:42 9.2 °C 8.6 °C 1024.3 hPa Calm     96 % 0.0 mm
01:47 9.1 °C 8.5 °C 1024.3 hPa Calm     96 % 0.0 mm
01:52 8.9 °C 8.3 °C 1024.3 hPa Calm     96 % 0.0 mm
01:57 8.6 °C 8.0 °C 1024.3 hPa Calm     96 % 0.0 mm
02:02 8.4 °C 7.8 °C 1024.3 hPa Calm     96 % 0.0 mm
02:07 8.2 °C 7.6 °C 1024.3 hPa Calm     96 % 0.0 mm
02:12 8.2 °C 7.6 °C 1024.3 hPa Calm     96 % 0.0 mm
02:17 8.3 °C 7.9 °C 1024.3 hPa Calm     97 % 0.0 mm
02:22 8.2 °C 7.8 °C 1024.3 hPa Calm     97 % 0.0 mm
02:27 8.3 °C 7.9 °C 1024.3 hPa Calm     97 % 0.0 mm
02:32 8.3 °C 7.9 °C 1024.3 hPa Calm     97 % 0.0 mm
02:37 8.4 °C 8.0 °C 1024.3 hPa Calm     97 % 0.0 mm
02:42 8.3 °C 7.9 °C 1024.3 hPa Calm     97 % 0.0 mm
02:47 8.2 °C 7.8 °C 1024.3 hPa Calm     97 % 0.0 mm
02:52 8.1 °C 7.7 °C 1024.3 hPa Calm     97 % 0.0 mm
02:57 7.9 °C 7.5 °C 1024.3 hPa Calm     97 % 0.0 mm
03:02 7.8 °C 7.2 °C 1024.3 hPa Calm     96 % 0.0 mm
03:07 7.6 °C 7.0 °C 1024.3 hPa Calm     96 % 0.0 mm
03:17 7.2 °C 6.6 °C 1024.3 hPa Calm     96 % 0.0 mm
03:22 7.1 °C 6.7 °C 1024.3 hPa Calm     97 % 0.0 mm
03:27 7.0 °C 6.6 °C 1024.3 hPa Calm     97 % 0.0 mm
03:32 6.9 °C 6.5 °C 1024.3 hPa Calm     97 % 0.0 mm
03:37 6.8 °C 6.4 °C 1024.3 hPa Calm     97 % 0.0 mm
03:42 6.8 °C 6.4 °C 1024.3 hPa Calm     97 % 0.0 mm
03:47 6.7 °C 6.3 °C 1024.3 hPa Calm     97 % 0.3 mm
03:52 6.7 °C 6.3 °C 1024.3 hPa Calm     97 % 0.3 mm
03:57 6.6 °C 6.2 °C 1024.3 hPa Calm     97 % 0.3 mm
04:12 6.4 °C 6.0 °C 1024.3 hPa Calm     97 % 0.3 mm
04:17 6.2 °C 5.8 °C 1024.3 hPa Calm     97 % 0.3 mm
04:22 6.1 °C 5.7 °C 1024.3 hPa Calm     97 % 0.3 mm
04:27 6.2 °C 5.8 °C 1024.3 hPa Calm     97 % 0.3 mm
04:32 6.4 °C 6.0 °C 1024.3 hPa Calm     97 % 0.3 mm
04:37 6.4 °C 6.0 °C 1024.3 hPa Calm     97 % 0.3 mm
04:42 6.3 °C 5.9 °C 1024.3 hPa Calm     97 % 0.3 mm
04:47 6.3 °C 5.9 °C 1024.3 hPa Calm     97 % 0.0 mm
04:52 6.2 °C 5.8 °C 1024.3 hPa Calm     97 % 0.0 mm
05:02 6.2 °C 5.8 °C 1024.3 hPa Calm     97 % 0.0 mm
05:12 6.1 °C 5.7 °C 1024.3 hPa Calm     97 % 0.0 mm
05:17 6.1 °C 5.7 °C 1024.3 hPa Calm     97 % 0.0 mm
05:22 6.1 °C 5.7 °C 1024.3 hPa Calm     97 % 0.0 mm
05:32 5.9 °C 5.5 °C 1024.3 hPa Calm     97 % 0.0 mm
05:42 5.8 °C 5.4 °C 1023.9 hPa Calm     97 % 0.0 mm
05:52 6.0 °C 5.6 °C 1024.3 hPa Calm     97 % 0.0 mm
06:02 5.8 °C 5.4 °C 1024.3 hPa Calm     97 % 0.0 mm
06:12 5.6 °C 5.2 °C 1024.3 hPa Calm     97 % 0.0 mm
06:17 5.6 °C 5.2 °C 1024.3 hPa Calm     97 % 0.0 mm
06:22 5.6 °C 5.2 °C 1024.3 hPa Calm     97 % 0.0 mm
06:32 5.4 °C 5.0 °C 1024.3 hPa Calm     97 % 0.0 mm
06:42 5.5 °C 5.1 °C 1024.3 hPa Calm     97 % 0.0 mm
06:47 5.5 °C 5.1 °C 1024.3 hPa Calm     97 % 0.0 mm
06:52 5.3 °C 4.9 °C 1024.3 hPa Calm     97 % 0.0 mm
07:02 5.0 °C 4.6 °C 1024.3 hPa Calm     97 % 0.0 mm
07:12 4.8 °C 4.4 °C 1024.3 hPa Calm     97 % 0.0 mm
07:17 4.8 °C 4.4 °C 1024.3 hPa Calm     97 % 0.0 mm
07:22 4.8 °C 4.4 °C 1024.3 hPa Calm     97 % 0.0 mm
07:32 4.8 °C 4.4 °C 1024.3 hPa Calm     97 % 0.0 mm
07:42 4.9 °C 4.5 °C 1024.3 hPa Calm     97 % 0.0 mm
07:52 4.9 °C 4.5 °C 1024.3 hPa Calm     97 % 0.0 mm
08:02 4.8 °C 4.4 °C 1024.3 hPa Calm     97 % 0.0 mm
08:12 4.6 °C 4.2 °C 1024.3 hPa Calm     97 % 0.0 mm
08:17 4.6 °C 4.2 °C 1024.6 hPa Calm     97 % 0.0 mm
08:22 4.7 °C 4.3 °C 1024.6 hPa Calm     97 % 0.0 mm
08:32 4.7 °C 4.3 °C 1024.6 hPa Calm     97 % 0.0 mm
08:42 4.6 °C 4.2 °C 1024.6 hPa Calm     97 % 0.0 mm
08:47 4.5 °C 4.1 °C 1024.6 hPa SSW 1.6 km/h 1.6 km/h 97 % 0.0 mm
08:52 4.6 °C 4.2 °C 1024.6 hPa South 1.6 km/h 1.6 km/h 97 % 0.0 mm
08:57 4.6 °C 4.2 °C 1024.6 hPa SSE 1.6 km/h 1.6 km/h 97 % 0.0 mm
09:02 4.7 °C 4.3 °C 1024.9 hPa SW 1.6 km/h 1.6 km/h 97 % 0.0 mm
09:12 4.8 °C 4.4 °C 1024.6 hPa Calm   4.8 km/h 97 % 0.0 mm
09:17 4.8 °C 4.4 °C 1024.9 hPa Calm   4.8 km/h 97 % 0.0 mm
09:22 4.8 °C 4.4 °C 1024.9 hPa Calm   4.8 km/h 97 % 0.0 mm
09:32 5.1 °C 4.7 °C 1024.9 hPa SSW 1.6 km/h 3.2 km/h 97 % 0.0 mm
09:42 5.4 °C 5.1 °C 1024.9 hPa Calm   4.8 km/h 98 % 0.0 mm
09:52 5.7 °C 5.4 °C 1024.9 hPa SW 1.6 km/h 4.8 km/h 98 % 0.0 mm
10:02 5.8 °C 5.5 °C 1025.3 hPa SSW 1.6 km/h 6.4 km/h 98 % 0.0 mm
10:12 6.1 °C 5.8 °C 1025.3 hPa SW 1.6 km/h 6.4 km/h 98 % 0.0 mm
10:17 6.2 °C 5.9 °C 1025.3 hPa SSW 3.2 km/h 6.4 km/h 98 % 0.0 mm
10:22 6.4 °C 6.1 °C 1025.3 hPa SW 3.2 km/h 6.4 km/h 98 % 0.0 mm
10:32 6.8 °C 6.5 °C 1025.6 hPa SW 1.6 km/h 4.8 km/h 98 % 0.0 mm
10:42 7.1 °C 6.8 °C 1025.6 hPa SSW 4.8 km/h 4.8 km/h 98 % 0.0 mm
10:52 7.4 °C 7.1 °C 1025.3 hPa South 1.6 km/h 6.4 km/h 98 % 0.0 mm
10:57 7.6 °C 7.3 °C 1025.6 hPa South 3.2 km/h 6.4 km/h 98 % 0.0 mm
11:02 7.7 °C 7.4 °C 1025.6 hPa SSW 3.2 km/h 6.4 km/h 98 % 0.0 mm
11:12 8.1 °C 7.8 °C 1025.6 hPa SSW 4.8 km/h 6.4 km/h 98 % 0.0 mm
11:17 8.2 °C 7.9 °C 1025.6 hPa Calm   6.4 km/h 98 % 0.0 mm
11:32 8.9 °C 8.6 °C 1025.6 hPa SSW 1.6 km/h 6.4 km/h 98 % 0.0 mm
11:42 9.3 °C 9.0 °C 1025.6 hPa SSE 3.2 km/h 8.0 km/h 98 % 0.0 mm
11:52 9.7 °C 9.4 °C 1025.6 hPa SSW 4.8 km/h 9.7 km/h 98 % 0.0 mm
11:57 9.9 °C 9.6 °C 1025.6 hPa SW 3.2 km/h 9.7 km/h 98 % 0.0 mm
12:02 10.2 °C 9.9 °C 1025.6 hPa SSW 6.4 km/h 9.7 km/h 98 % 0.0 mm
12:12 10.3 °C 10.0 °C 1025.6 hPa South 1.6 km/h 11.3 km/h 98 % 0.0 mm
12:17 10.4 °C 10.1 °C 1025.6 hPa SSW 3.2 km/h 11.3 km/h 98 % 0.0 mm
12:22 10.6 °C 10.3 °C 1025.3 hPa South 3.2 km/h 11.3 km/h 98 % 0.0 mm
12:27 10.7 °C 10.4 °C 1025.6 hPa SW 6.4 km/h 11.3 km/h 98 % 0.0 mm
12:32 10.9 °C 10.4 °C 1025.3 hPa South 6.4 km/h 11.3 km/h 97 % 0.0 mm
12:37 11.0 °C 10.5 °C 1025.6 hPa SSW 8.0 km/h 11.3 km/h 97 % 0.0 mm
12:42 11.1 °C 10.6 °C 1025.3 hPa SW 12.9 km/h 12.9 km/h 97 % 0.0 mm
12:52 11.3 °C 10.8 °C 1025.3 hPa SSW 8.0 km/h 16.1 km/h 97 % 0.0 mm
12:57 11.5 °C 11.0 °C 1025.3 hPa WSW 11.3 km/h 17.7 km/h 97 % 0.0 mm
13:02 11.5 °C 11.0 °C 1025.3 hPa SSW 6.4 km/h 17.7 km/h 97 % 0.0 mm
13:12 11.6 °C 11.1 °C 1025.3 hPa SSW 9.7 km/h 16.1 km/h 97 % 0.0 mm
13:17 11.6 °C 11.0 °C 1025.3 hPa SSW 6.4 km/h 16.1 km/h 96 % 0.0 mm
13:22 11.9 °C 11.4 °C 1024.9 hPa SSW 4.8 km/h 16.1 km/h 97 % 0.0 mm
13:32 12.2 °C 11.6 °C 1025.3 hPa West 3.2 km/h 16.1 km/h 96 % 0.0 mm
13:37 12.3 °C 11.7 °C 1024.9 hPa WSW 4.8 km/h 16.1 km/h 96 % 0.0 mm
13:47 12.6 °C 11.7 °C 1024.9 hPa West 11.3 km/h 11.3 km/h 94 % 0.0 mm
13:52 12.8 °C 11.5 °C 1024.9 hPa West 6.4 km/h 11.3 km/h 92 % 0.0 mm
13:57 12.9 °C 11.5 °C 1024.9 hPa WNW 9.7 km/h 14.5 km/h 91 % 0.0 mm
14:02 13.2 °C 11.8 °C 1024.9 hPa WSW 9.7 km/h 14.5 km/h 91 % 0.0 mm
14:12 13.7 °C 11.7 °C 1024.9 hPa WSW 6.4 km/h 14.5 km/h 88 % 0.0 mm
14:17 13.8 °C 11.5 °C 1024.9 hPa SW 8.0 km/h 14.5 km/h 86 % 0.0 mm
14:22 14.2 °C 11.7 °C 1024.9 hPa West 8.0 km/h 12.9 km/h 85 % 0.0 mm
14:27 14.4 °C 11.2 °C 1024.6 hPa SW 4.8 km/h 11.3 km/h 81 % 0.0 mm
14:32 14.7 °C 11.5 °C 1024.6 hPa WSW 9.7 km/h 11.3 km/h 81 % 0.0 mm
14:37 14.9 °C 12.0 °C 1024.6 hPa WSW 11.3 km/h 12.9 km/h 83 % 0.0 mm
14:42 14.9 °C 12.0 °C 1024.6 hPa WSW 6.4 km/h 12.9 km/h 83 % 0.0 mm
14:47 14.9 °C 10.5 °C 1024.6 hPa WSW 6.4 km/h 12.9 km/h 75 % 0.0 mm
14:52 14.7 °C 9.9 °C 1024.6 hPa West 14.5 km/h 14.5 km/h 73 % 0.0 mm
14:57 14.3 °C 9.3 °C 1024.6 hPa West 6.4 km/h 16.1 km/h 72 % 0.0 mm
15:02 14.2 °C 9.6 °C 1024.6 hPa WSW 9.7 km/h 16.1 km/h 74 % 0.0 mm
15:07 14.1 °C 9.5 °C 1024.6 hPa WSW 1.6 km/h 14.5 km/h 74 % 0.0 mm
15:12 14.2 °C 9.6 °C 1024.3 hPa SW 3.2 km/h 12.9 km/h 74 % 0.0 mm
15:17 14.3 °C 10.1 °C 1024.3 hPa West 8.0 km/h 11.3 km/h 76 % 0.0 mm
15:22 14.6 °C 9.4 °C 1024.3 hPa West 11.3 km/h 12.9 km/h 71 % 0.0 mm
15:37 14.6 °C 9.6 °C 1024.3 hPa WNW 12.9 km/h 14.5 km/h 72 % 0.0 mm
15:42 14.8 °C 9.8 °C 1024.3 hPa West 3.2 km/h 14.5 km/h 72 % 0.0 mm
15:47 15.0 °C 9.8 °C 1024.3 hPa West 11.3 km/h 17.7 km/h 71 % 0.0 mm
15:52 14.8 °C 9.4 °C 1024.3 hPa WSW 14.5 km/h 17.7 km/h 70 % 0.0 mm
15:57 14.9 °C 9.7 °C 1024.3 hPa West 8.0 km/h 19.3 km/h 71 % 0.0 mm
16:02 15.1 °C 9.5 °C 1024.3 hPa West 6.4 km/h 19.3 km/h 69 % 0.0 mm
16:07 15.1 °C 9.0 °C 1024.3 hPa West 17.7 km/h 19.3 km/h 67 % 0.0 mm
16:12 15.1 °C 9.2 °C 1024.3 hPa West 9.7 km/h 20.9 km/h 68 % 0.3 mm
16:17 15.0 °C 9.1 °C 1024.3 hPa West 9.7 km/h 20.9 km/h 68 % 0.3 mm
16:22 14.7 °C 8.9 °C 1023.9 hPa West 3.2 km/h 20.9 km/h 68 % 0.3 mm
16:27 14.7 °C 9.1 °C 1023.9 hPa West 8.0 km/h 16.1 km/h 69 % 0.3 mm
16:32 14.7 °C 9.1 °C 1024.3 hPa West 11.3 km/h 16.1 km/h 69 % 0.3 mm
16:37 14.5 °C 8.7 °C 1023.9 hPa WSW 12.9 km/h 12.9 km/h 68 % 0.3 mm
16:42 14.3 °C 8.7 °C 1024.3 hPa West 12.9 km/h 19.3 km/h 69 % 0.3 mm
16:52 14.1 °C 9.1 °C 1023.9 hPa West 6.4 km/h 19.3 km/h 72 % 0.3 mm
16:57 14.1 °C 9.1 °C 1023.9 hPa West 6.4 km/h 17.7 km/h 72 % 0.3 mm
17:12 13.9 °C 9.3 °C 1023.6 hPa WSW 1.6 km/h 9.7 km/h 74 % 0.0 mm
17:17 13.9 °C 9.3 °C 1023.6 hPa WNW 3.2 km/h 6.4 km/h 74 % 0.0 mm
17:22 13.9 °C 9.5 °C 1023.6 hPa WSW 6.4 km/h 6.4 km/h 75 % 0.0 mm
17:32 13.9 °C 9.3 °C 1023.6 hPa SW 3.2 km/h 9.7 km/h 74 % 0.0 mm
17:37 13.9 °C 9.5 °C 1023.6 hPa SW 4.8 km/h 9.7 km/h 75 % 0.0 mm
17:42 14.1 °C 9.7 °C 1023.6 hPa WSW 6.4 km/h 9.7 km/h 75 % 0.0 mm
17:52 14.2 °C 9.4 °C 1023.2 hPa SW 3.2 km/h 11.3 km/h 73 % 0.0 mm
17:57 14.2 °C 9.4 °C 1023.2 hPa West 4.8 km/h 11.3 km/h 73 % 0.0 mm
18:02 14.2 °C 9.6 °C 1023.2 hPa WSW 8.0 km/h 11.3 km/h 74 % 0.0 mm
18:07 14.1 °C 9.5 °C 1023.2 hPa SSW 4.8 km/h 11.3 km/h 74 % 0.0 mm
18:12 14.1 °C 9.5 °C 1023.2 hPa WSW 9.7 km/h 11.3 km/h 74 % 0.0 mm
18:17 14.0 °C 9.4 °C 1023.2 hPa West 6.4 km/h 11.3 km/h 74 % 0.0 mm
18:22 13.9 °C 9.3 °C 1023.2 hPa SW 6.4 km/h 11.3 km/h 74 % 0.0 mm
18:27 13.8 °C 9.4 °C 1023.2 hPa SW 6.4 km/h 11.3 km/h 75 % 0.0 mm
18:32 13.6 °C 9.4 °C 1023.2 hPa SW 4.8 km/h 12.9 km/h 76 % 0.0 mm
18:37 13.4 °C 9.4 °C 1023.2 hPa SW 9.7 km/h 12.9 km/h 77 % 0.0 mm
18:42 13.3 °C 9.5 °C 1023.2 hPa WSW 8.0 km/h 11.3 km/h 78 % 0.0 mm
18:52 13.1 °C 9.5 °C 1023.2 hPa SW 6.4 km/h 11.3 km/h 79 % 0.0 mm
18:57 12.9 °C 9.5 °C 1023.2 hPa WSW 8.0 km/h 11.3 km/h 80 % 0.0 mm
19:02 12.8 °C 9.6 °C 1023.2 hPa SW 1.6 km/h 11.3 km/h 81 % 0.0 mm
19:12 12.6 °C 9.6 °C 1023.2 hPa SW 6.4 km/h 11.3 km/h 82 % 0.0 mm
19:17 12.5 °C 9.5 °C 1023.2 hPa SW 3.2 km/h 11.3 km/h 82 % 0.0 mm
19:22 12.4 °C 9.6 °C 1023.2 hPa SW 4.8 km/h 12.9 km/h 83 % 0.0 mm
19:32 12.3 °C 9.5 °C 1023.2 hPa SW 9.7 km/h 12.9 km/h 83 % 0.0 mm
19:37 12.3 °C 9.5 °C 1023.2 hPa WSW 9.7 km/h 14.5 km/h 83 % 0.0 mm
19:42 12.3 °C 9.5 °C 1023.2 hPa SW 4.8 km/h 14.5 km/h 83 % 0.0 mm
19:47 12.2 °C 9.6 °C 1023.2 hPa SW 3.2 km/h 14.5 km/h 84 % 0.0 mm
19:52 12.1 °C 9.5 °C 1023.2 hPa WSW 6.4 km/h 14.5 km/h 84 % 0.0 mm
19:57 12.0 °C 9.6 °C 1023.2 hPa SW 4.8 km/h 14.5 km/h 85 % 0.0 mm
20:02 11.9 °C 9.5 °C 1023.2 hPa SW 4.8 km/h 14.5 km/h 85 % 0.0 mm
20:12 12.0 °C 9.6 °C 1023.2 hPa WSW 6.4 km/h 16.1 km/h 85 % 0.0 mm
20:17 12.0 °C 9.6 °C 1023.2 hPa WSW 3.2 km/h 12.9 km/h 85 % 0.0 mm
20:22 12.1 °C 9.7 °C 1023.2 hPa SW 4.8 km/h 12.9 km/h 85 % 0.0 mm
20:42 11.9 °C 9.5 °C 1023.2 hPa SW 1.6 km/h 16.1 km/h 85 % 0.0 mm
20:47 11.9 °C 9.5 °C 1023.2 hPa WSW 4.8 km/h 16.1 km/h 85 % 0.0 mm
20:52 11.8 °C 9.5 °C 1023.2 hPa SW 3.2 km/h 16.1 km/h 86 % 0.0 mm
21:02 11.7 °C 9.4 °C 1023.2 hPa WSW 4.8 km/h 9.7 km/h 86 % 0.0 mm
21:12 11.7 °C 9.4 °C 1023.2 hPa WSW 8.0 km/h 11.3 km/h 86 % 0.0 mm
21:17 11.7 °C 9.4 °C 1023.2 hPa WSW 4.8 km/h 11.3 km/h 86 % 0.0 mm
21:22 11.6 °C 9.3 °C 1023.2 hPa WSW 3.2 km/h 9.7 km/h 86 % 0.0 mm
21:27 11.6 °C 9.5 °C 1023.2 hPa WSW 4.8 km/h 9.7 km/h 87 % 0.0 mm
21:32 11.4 °C 9.3 °C 1023.2 hPa SW 4.8 km/h 9.7 km/h 87 % 0.0 mm
21:37 11.4 °C 9.3 °C 1023.2 hPa SW 4.8 km/h 8.0 km/h 87 % 0.0 mm
21:42 11.4 °C 9.3 °C 1023.2 hPa SW 3.2 km/h 8.0 km/h 87 % 0.0 mm
21:47 11.3 °C 9.2 °C 1023.2 hPa SW 3.2 km/h 9.7 km/h 87 % 0.0 mm
21:57 11.2 °C 9.3 °C 1023.2 hPa SW 3.2 km/h 9.7 km/h 88 % 0.0 mm
22:02 11.2 °C 9.3 °C 1023.2 hPa SW 1.6 km/h 9.7 km/h 88 % 0.0 mm
22:12 11.2 °C 9.3 °C 1023.2 hPa WSW 3.2 km/h 6.4 km/h 88 % 0.0 mm
22:17 11.2 °C 9.3 °C 1023.2 hPa West 1.6 km/h 6.4 km/h 88 % 0.0 mm
22:22 11.2 °C 9.3 °C 1023.2 hPa Calm   6.4 km/h 88 % 0.0 mm
22:32 11.1 °C 9.2 °C 1023.2 hPa West 1.6 km/h 6.4 km/h 88 % 0.0 mm
22:37 10.9 °C 9.2 °C 1023.2 hPa WSW 1.6 km/h 4.8 km/h 89 % 0.0 mm
22:42 10.8 °C 9.1 °C 1023.2 hPa WSW 3.2 km/h 4.8 km/h 89 % 0.0 mm
22:47 10.8 °C 9.1 °C 1023.2 hPa WSW 3.2 km/h 4.8 km/h 89 % 0.0 mm
22:52 10.8 °C 9.1 °C 1023.2 hPa WSW 1.6 km/h 4.8 km/h 89 % 0.0 mm
23:02 10.8 °C 9.1 °C 1023.2 hPa WSW 1.6 km/h 4.8 km/h 89 % 0.0 mm
23:07 10.8 °C 8.9 °C 1023.2 hPa West 3.2 km/h 3.2 km/h 88 % 0.0 mm
23:12 10.8 °C 8.9 °C 1023.2 hPa WSW 3.2 km/h 3.2 km/h 88 % 0.0 mm
23:17 10.8 °C 8.9 °C 1023.2 hPa WSW 1.6 km/h 3.2 km/h 88 % 0.0 mm
23:22 10.9 °C 9.0 °C 1023.2 hPa West 1.6 km/h 3.2 km/h 88 % 0.0 mm
23:32 10.8 °C 8.9 °C 1023.2 hPa WSW 1.6 km/h 4.8 km/h 88 % 0.0 mm
23:37 10.8 °C 8.9 °C 1023.2 hPa WSW 3.2 km/h 4.8 km/h 88 % 0.0 mm
23:42 10.8 °C 8.9 °C 1023.2 hPa WSW 3.2 km/h 3.2 km/h 88 % 0.0 mm
23:47 10.9 °C 9.0 °C 1023.2 hPa West 1.6 km/h 4.8 km/h 88 % 0.0 mm
23:52 10.9 °C 9.0 °C 1023.2 hPa West 3.2 km/h 6.4 km/h 88 % 0.0 mm
23:57 10.9 °C 9.0 °C 1023.2 hPa NW 4.8 km/h 6.4 km/h 88 % 0.0 mm
Meteo18
Compliments of Weather Underground - 4 mb

Script developed by  Jim McMurry - jmcmurry@mwt.net Adapted for the template by  Wim van der Kuil - Leuven-Template.eu

You find our weather info also at:

European Weather Network

Weather Underground

Equipment we use:

Weather-station
Davis Vue

Weather-program
Meteohub

Weather-server
Raspberry PI 2 B+

Provider
1 and 1

Davis Vue

Meteohub

Raspberry PI 2 B+

1 and 1